CYCB

Cambridge Bay Airport

Cambridge Bay, Canada
METAR CYCB 190200Z 31008KT 7SM -SN FEW009 SCT011 OVC035 M05/M07 A2970 RMK CF1SC3SC4 SLP062
Observed Flight Rules
Sep-19 @ 02:00 UTC (an hour ago) Visual Flight Rules
Wind Visibility Clouds Conditions
310° at 8 knots 7 miles
  • Few at 900' AGL
  • Scattered at 1,100' AGL
  • Overcast at 3,500' AGL
  • Light Snow
Temperatures Readings
Current -5°C / 23°F
Dewpoint -7°C / 19°F
Humidity 86%
Altimeter 29.7" Hg
Pressure 1006.2 hPa
Elevation 27
METAR CYCB 190200Z 31008KT 7SM -SN FEW009 SCT011 OVC035 M05/M07 A2970 RMK CF1SC3SC4 SLP062
Observed Flight Rules
Sep-19 @ 02:00 UTC
(an hour ago)
VFR
Wind Visibility
310° at 8 knots 7 miles
Clouds
  • Few at 900' AGL
  • Scattered at 1,100' AGL
  • Overcast at 3,500' AGL
Conditions
  • Light Snow
Temperature Dewpoint
-5°C / 23°F -7°C / 19°F
Humidity Altimeter Pressure
86% 29.7" Hg 1006.2 hPa